Terminal Aerodrome Forecast
Issued by NWS Springfield, MO

Home | Current Version | Previous Version | Text Only | Print | Product List | Glossary On
Versions: 1 2 3 4 5 6 7 8 9 10 11 12
000
FTUS43 KSGF 030500
TAFSGF
TAF
KSGF 030520Z 0306/0406 20005KT P6SM SKC
     FM031430 25010KT P6SM FEW050 SCT250
     FM040100 VRB04KT P6SM SCT250=

USA.gov is the U.S. government's official web portal to all federal, state and local government web resources and services.